General R Fierro Villalobos International Airport
MMCU : now visible

Airfield :











YOU CAN JOIN US ON...

 
LOGIN :

Register | Disclaimer

   EN    FR    IT 

 









Legend :    VFR   Marginal VFR   IFR   Intensive IFR   Very Intensive IFR
Visi :
Ceiling :
>= 8 km
>= 3000ft
5 to 8 km
1000 to 3000 ft
1500m to 5 km
500 to 1000 ft
800 to 1500m
200 to 500 ft
< 800m
< 200 ft
Symbols :   Thunderstorms  Fog  Heavy snow  Heavy precipitations  Wind > 20 kt







- Airport Elevation : 4462 ft
- IATA code : CUU


MMCU - General R Fierro Villalobos International

METAR N/A
TAF TAF MMCU
Valid from the 21 at 06:00 until the 22 at 06:00 UTC


210446Z 2106/2206 22015G25KT 6SM HZ SCT200
TEMPO 2106/2110 5SM BLDU
FM211200 22015KT P6SM SCT200
FM211800 20020G30KT 6SM HZ SCT100 SCT200
FM220400 22015KT 6SM HZ SCT200
MMFR FIR / North America



MET'MAP, your aeronautical weather chart ! - Copyright ORBIFLY December 2007 - Disclaimer

ORBIFLY MET'MAP TEAM :

Programming & Development : Alexandra Zaïnal
Concept & Development : Baudouin d'Aumeries
Co-Development & Prog : Marc-Olivier Méhu
Technical & hardware support : Manuel Goepfert

Contact : metmap@orbifly.com




SOURCES & CREDITS :

   NOAA       Earth
Advisory